sensor_id;sensor_type;location;lat;lon;timestamp;P1;durP1;ratioP1;P2;durP2;ratioP2
13441;SDS011;6793;55.662;13.114;2024-02-26T00:00:43;0.60;;;0.60;;
13441;SDS011;6793;55.662;13.114;2024-02-26T00:03:11;0.70;;;0.70;;
13441;SDS011;6793;55.662;13.114;2024-02-26T00:05:38;0.60;;;0.60;;
13441;SDS011;6793;55.662;13.114;2024-02-26T00:08:05;0.50;;;0.50;;
13441;SDS011;6793;55.662;13.114;2024-02-26T00:10:34;0.60;;;0.60;;
13441;SDS011;6793;55.662;13.114;2024-02-26T00:13:01;0.60;;;0.60;;
13441;SDS011;6793;55.662;13.114;2024-02-26T00:15:28;0.50;;;0.50;;
13441;SDS011;6793;55.662;13.114;2024-02-26T00:17:55;0.60;;;0.60;;
13441;SDS011;6793;55.662;13.114;2024-02-26T00:20:22;0.60;;;0.60;;
13441;SDS011;6793;55.662;13.114;2024-02-26T00:22:49;0.50;;;0.50;;
13441;SDS011;6793;55.662;13.114;2024-02-26T00:25:17;0.60;;;0.60;;
13441;SDS011;6793;55.662;13.114;2024-02-26T00:27:45;0.60;;;0.60;;
13441;SDS011;6793;55.662;13.114;2024-02-26T00:30:12;0.50;;;0.50;;
13441;SDS011;6793;55.662;13.114;2024-02-26T00:32:39;0.60;;;0.60;;
13441;SDS011;6793;55.662;13.114;2024-02-26T00:35:07;0.50;;;0.50;;
13441;SDS011;6793;55.662;13.114;2024-02-26T00:37:35;0.60;;;0.60;;
13441;SDS011;6793;55.662;13.114;2024-02-26T00:40:02;0.60;;;0.60;;
13441;SDS011;6793;55.662;13.114;2024-02-26T00:42:29;0.60;;;0.60;;
13441;SDS011;6793;55.662;13.114;2024-02-26T00:44:58;0.50;;;0.50;;
13441;SDS011;6793;55.662;13.114;2024-02-26T00:47:25;0.40;;;0.40;;
13441;SDS011;6793;55.662;13.114;2024-02-26T00:49:52;0.50;;;0.50;;
13441;SDS011;6793;55.662;13.114;2024-02-26T00:52:19;0.50;;;0.50;;
13441;SDS011;6793;55.662;13.114;2024-02-26T00:54:46;0.50;;;0.50;;
13441;SDS011;6793;55.662;13.114;2024-02-26T00:57:13;0.40;;;0.40;;
13441;SDS011;6793;55.662;13.114;2024-02-26T00:59:40;0.50;;;0.50;;
13441;SDS011;6793;55.662;13.114;2024-02-26T01:02:09;0.50;;;0.50;;
13441;SDS011;6793;55.662;13.114;2024-02-26T01:04:36;0.43;;;0.43;;
13441;SDS011;6793;55.662;13.114;2024-02-26T01:07:03;0.40;;;0.40;;
13441;SDS011;6793;55.662;13.114;2024-02-26T01:09:30;0.50;;;0.50;;
13441;SDS011;6793;55.662;13.114;2024-02-26T01:11:57;0.50;;;0.50;;
13441;SDS011;6793;55.662;13.114;2024-02-26T01:14:24;0.50;;;0.50;;
13441;SDS011;6793;55.662;13.114;2024-02-26T01:16:51;0.50;;;0.50;;
13441;SDS011;6793;55.662;13.114;2024-02-26T01:19:20;0.50;;;0.50;;
13441;SDS011;6793;55.662;13.114;2024-02-26T01:21:47;0.50;;;0.50;;
13441;SDS011;6793;55.662;13.114;2024-02-26T01:24:15;0.50;;;0.50;;
13441;SDS011;6793;55.662;13.114;2024-02-26T01:26:42;0.50;;;0.50;;
13441;SDS011;6793;55.662;13.114;2024-02-26T01:29:09;0.60;;;0.60;;
13441;SDS011;6793;55.662;13.114;2024-02-26T01:31:36;0.60;;;0.60;;
13441;SDS011;6793;55.662;13.114;2024-02-26T01:34:03;0.50;;;0.50;;
13441;SDS011;6793;55.662;13.114;2024-02-26T01:36:31;0.50;;;0.50;;
13441;SDS011;6793;55.662;13.114;2024-02-26T01:38:59;0.50;;;0.50;;
13441;SDS011;6793;55.662;13.114;2024-02-26T01:41:28;0.50;;;0.50;;
13441;SDS011;6793;55.662;13.114;2024-02-26T01:43:55;0.50;;;0.50;;
13441;SDS011;6793;55.662;13.114;2024-02-26T01:46:22;0.50;;;0.50;;
13441;SDS011;6793;55.662;13.114;2024-02-26T01:48:49;0.45;;;0.45;;
13441;SDS011;6793;55.662;13.114;2024-02-26T01:51:17;0.50;;;0.50;;
13441;SDS011;6793;55.662;13.114;2024-02-26T01:53:45;0.57;;;0.57;;
13441;SDS011;6793;55.662;13.114;2024-02-26T01:56:12;0.50;;;0.50;;
13441;SDS011;6793;55.662;13.114;2024-02-26T01:58:40;0.50;;;0.50;;
13441;SDS011;6793;55.662;13.114;2024-02-26T02:01:08;0.50;;;0.50;;
13441;SDS011;6793;55.662;13.114;2024-02-26T02:03:35;0.50;;;0.50;;
13441;SDS011;6793;55.662;13.114;2024-02-26T02:06:03;0.40;;;0.40;;
13441;SDS011;6793;55.662;13.114;2024-02-26T02:08:30;0.60;;;0.60;;
13441;SDS011;6793;55.662;13.114;2024-02-26T02:10:59;0.60;;;0.60;;
13441;SDS011;6793;55.662;13.114;2024-02-26T02:13:26;0.60;;;0.60;;
13441;SDS011;6793;55.662;13.114;2024-02-26T02:15:53;0.60;;;0.60;;
13441;SDS011;6793;55.662;13.114;2024-02-26T02:18:20;0.60;;;0.60;;
13441;SDS011;6793;55.662;13.114;2024-02-26T02:20:48;0.70;;;0.70;;
13441;SDS011;6793;55.662;13.114;2024-02-26T02:23:15;0.60;;;0.60;;
13441;SDS011;6793;55.662;13.114;2024-02-26T02:25:43;0.70;;;0.70;;
13441;SDS011;6793;55.662;13.114;2024-02-26T02:28:10;0.70;;;0.70;;
13441;SDS011;6793;55.662;13.114;2024-02-26T02:30:37;0.60;;;0.60;;
13441;SDS011;6793;55.662;13.114;2024-02-26T02:33:04;0.70;;;0.70;;
13441;SDS011;6793;55.662;13.114;2024-02-26T02:35:31;0.60;;;0.60;;
13441;SDS011;6793;55.662;13.114;2024-02-26T02:38:00;0.70;;;0.70;;
13441;SDS011;6793;55.662;13.114;2024-02-26T02:40:27;0.70;;;0.70;;
13441;SDS011;6793;55.662;13.114;2024-02-26T02:42:54;0.70;;;0.70;;
13441;SDS011;6793;55.662;13.114;2024-02-26T02:45:21;0.60;;;0.60;;
13441;SDS011;6793;55.662;13.114;2024-02-26T02:47:48;0.70;;;0.70;;
13441;SDS011;6793;55.662;13.114;2024-02-26T02:50:15;0.70;;;0.70;;
13441;SDS011;6793;55.662;13.114;2024-02-26T02:52:42;0.70;;;0.70;;
13441;SDS011;6793;55.662;13.114;2024-02-26T02:55:11;0.63;;;0.63;;
13441;SDS011;6793;55.662;13.114;2024-02-26T02:57:38;0.70;;;0.70;;
13441;SDS011;6793;55.662;13.114;2024-02-26T03:00:08;0.70;;;0.70;;
13441;SDS011;6793;55.662;13.114;2024-02-26T03:02:35;0.60;;;0.60;;
13441;SDS011;6793;55.662;13.114;2024-02-26T03:05:02;0.70;;;0.70;;
13441;SDS011;6793;55.662;13.114;2024-02-26T03:07:29;0.60;;;0.60;;
13441;SDS011;6793;55.662;13.114;2024-02-26T03:09:56;0.70;;;0.70;;
13441;SDS011;6793;55.662;13.114;2024-02-26T03:12:25;0.60;;;0.60;;
13441;SDS011;6793;55.662;13.114;2024-02-26T03:14:52;0.60;;;0.60;;
13441;SDS011;6793;55.662;13.114;2024-02-26T03:17:20;0.60;;;0.60;;
13441;SDS011;6793;55.662;13.114;2024-02-26T03:19:49;0.60;;;0.60;;
13441;SDS011;6793;55.662;13.114;2024-02-26T03:22:18;0.70;;;0.70;;
13441;SDS011;6793;55.662;13.114;2024-02-26T03:24:45;0.70;;;0.70;;
13441;SDS011;6793;55.662;13.114;2024-02-26T03:27:12;0.63;;;0.63;;
13441;SDS011;6793;55.662;13.114;2024-02-26T03:29:41;0.80;;;0.80;;
13441;SDS011;6793;55.662;13.114;2024-02-26T03:32:08;0.70;;;0.70;;
13441;SDS011;6793;55.662;13.114;2024-02-26T03:34:35;0.60;;;0.60;;
13441;SDS011;6793;55.662;13.114;2024-02-26T03:37:04;0.70;;;0.70;;
13441;SDS011;6793;55.662;13.114;2024-02-26T03:39:31;0.70;;;0.70;;
13441;SDS011;6793;55.662;13.114;2024-02-26T03:41:58;0.80;;;0.80;;
13441;SDS011;6793;55.662;13.114;2024-02-26T03:44:25;0.70;;;0.70;;
13441;SDS011;6793;55.662;13.114;2024-02-26T03:46:54;0.80;;;0.80;;
13441;SDS011;6793;55.662;13.114;2024-02-26T03:49:21;0.80;;;0.80;;
13441;SDS011;6793;55.662;13.114;2024-02-26T03:51:48;0.80;;;0.80;;
13441;SDS011;6793;55.662;13.114;2024-02-26T03:54:15;0.90;;;0.90;;
13441;SDS011;6793;55.662;13.114;2024-02-26T03:56:44;0.80;;;0.80;;
13441;SDS011;6793;55.662;13.114;2024-02-26T03:59:12;0.70;;;0.70;;
13441;SDS011;6793;55.662;13.114;2024-02-26T04:01:39;0.75;;;0.75;;
13441;SDS011;6793;55.662;13.114;2024-02-26T04:04:07;0.85;;;0.85;;
13441;SDS011;6793;55.662;13.114;2024-02-26T04:06:34;0.80;;;0.80;;
13441;SDS011;6793;55.662;13.114;2024-02-26T04:09:02;0.70;;;0.70;;
13441;SDS011;6793;55.662;13.114;2024-02-26T04:11:29;0.70;;;0.70;;
13441;SDS011;6793;55.662;13.114;2024-02-26T04:13:56;0.70;;;0.70;;
13441;SDS011;6793;55.662;13.114;2024-02-26T04:16:23;0.70;;;0.70;;
13441;SDS011;6793;55.662;13.114;2024-02-26T04:18:51;0.70;;;0.70;;
13441;SDS011;6793;55.662;13.114;2024-02-26T04:21:19;0.70;;;0.70;;
13441;SDS011;6793;55.662;13.114;2024-02-26T04:23:46;0.52;;;0.52;;
13441;SDS011;6793;55.662;13.114;2024-02-26T04:26:15;0.70;;;0.70;;
13441;SDS011;6793;55.662;13.114;2024-02-26T04:28:42;0.70;;;0.70;;
13441;SDS011;6793;55.662;13.114;2024-02-26T04:31:09;0.70;;;0.70;;
13441;SDS011;6793;55.662;13.114;2024-02-26T04:33:36;0.70;;;0.70;;
13441;SDS011;6793;55.662;13.114;2024-02-26T04:36:03;0.70;;;0.70;;
13441;SDS011;6793;55.662;13.114;2024-02-26T04:38:32;0.60;;;0.60;;
13441;SDS011;6793;55.662;13.114;2024-02-26T04:40:59;0.70;;;0.70;;
13441;SDS011;6793;55.662;13.114;2024-02-26T04:43:26;0.77;;;0.77;;
13441;SDS011;6793;55.662;13.114;2024-02-26T04:45:53;0.70;;;0.70;;
13441;SDS011;6793;55.662;13.114;2024-02-26T04:48:22;0.70;;;0.70;;
13441;SDS011;6793;55.662;13.114;2024-02-26T04:50:49;0.70;;;0.70;;
13441;SDS011;6793;55.662;13.114;2024-02-26T04:53:16;0.70;;;0.70;;
13441;SDS011;6793;55.662;13.114;2024-02-26T04:55:44;0.70;;;0.70;;
13441;SDS011;6793;55.662;13.114;2024-02-26T04:58:11;0.70;;;0.70;;
13441;SDS011;6793;55.662;13.114;2024-02-26T05:00:38;0.70;;;0.70;;
13441;SDS011;6793;55.662;13.114;2024-02-26T05:03:05;0.70;;;0.70;;
13441;SDS011;6793;55.662;13.114;2024-02-26T05:05:33;0.60;;;0.60;;
13441;SDS011;6793;55.662;13.114;2024-02-26T05:08:00;0.80;;;0.80;;
13441;SDS011;6793;55.662;13.114;2024-02-26T05:10:28;0.60;;;0.60;;
13441;SDS011;6793;55.662;13.114;2024-02-26T05:12:56;0.65;;;0.65;;
13441;SDS011;6793;55.662;13.114;2024-02-26T05:15:23;0.65;;;0.65;;
13441;SDS011;6793;55.662;13.114;2024-02-26T05:17:50;0.60;;;0.60;;
13441;SDS011;6793;55.662;13.114;2024-02-26T05:20:17;0.70;;;0.70;;
13441;SDS011;6793;55.662;13.114;2024-02-26T05:22:45;0.60;;;0.60;;
13441;SDS011;6793;55.662;13.114;2024-02-26T05:25:14;0.60;;;0.60;;
13441;SDS011;6793;55.662;13.114;2024-02-26T05:27:41;0.60;;;0.60;;
13441;SDS011;6793;55.662;13.114;2024-02-26T05:30:10;0.60;;;0.60;;
13441;SDS011;6793;55.662;13.114;2024-02-26T05:32:37;0.60;;;0.60;;
13441;SDS011;6793;55.662;13.114;2024-02-26T05:35:05;0.60;;;0.60;;
13441;SDS011;6793;55.662;13.114;2024-02-26T05:37:32;0.60;;;0.60;;
13441;SDS011;6793;55.662;13.114;2024-02-26T05:39:59;0.55;;;0.55;;
13441;SDS011;6793;55.662;13.114;2024-02-26T05:42:26;0.60;;;0.60;;
13441;SDS011;6793;55.662;13.114;2024-02-26T05:44:53;0.70;;;0.70;;
13441;SDS011;6793;55.662;13.114;2024-02-26T05:47:22;0.60;;;0.60;;
13441;SDS011;6793;55.662;13.114;2024-02-26T05:49:49;0.60;;;0.60;;
13441;SDS011;6793;55.662;13.114;2024-02-26T05:52:16;0.60;;;0.60;;
13441;SDS011;6793;55.662;13.114;2024-02-26T05:54:43;0.60;;;0.60;;
13441;SDS011;6793;55.662;13.114;2024-02-26T05:57:10;0.50;;;0.50;;
13441;SDS011;6793;55.662;13.114;2024-02-26T05:59:37;0.60;;;0.60;;
13441;SDS011;6793;55.662;13.114;2024-02-26T06:02:04;0.60;;;0.60;;
13441;SDS011;6793;55.662;13.114;2024-02-26T06:04:33;0.60;;;0.60;;
13441;SDS011;6793;55.662;13.114;2024-02-26T06:07:00;0.60;;;0.60;;
13441;SDS011;6793;55.662;13.114;2024-02-26T06:09:27;0.60;;;0.60;;
13441;SDS011;6793;55.662;13.114;2024-02-26T06:11:54;0.60;;;0.60;;
13441;SDS011;6793;55.662;13.114;2024-02-26T06:14:21;0.60;;;0.60;;
13441;SDS011;6793;55.662;13.114;2024-02-26T06:16:48;0.60;;;0.60;;
13441;SDS011;6793;55.662;13.114;2024-02-26T06:19:15;0.50;;;0.50;;
13441;SDS011;6793;55.662;13.114;2024-02-26T06:21:44;0.60;;;0.60;;
13441;SDS011;6793;55.662;13.114;2024-02-26T06:24:11;0.60;;;0.60;;
13441;SDS011;6793;55.662;13.114;2024-02-26T06:26:38;0.60;;;0.60;;
13441;SDS011;6793;55.662;13.114;2024-02-26T06:29:05;0.60;;;0.60;;
13441;SDS011;6793;55.662;13.114;2024-02-26T06:31:32;0.60;;;0.60;;
13441;SDS011;6793;55.662;13.114;2024-02-26T06:33:59;0.60;;;0.60;;
13441;SDS011;6793;55.662;13.114;2024-02-26T06:36:26;0.60;;;0.60;;
13441;SDS011;6793;55.662;13.114;2024-02-26T06:38:54;0.60;;;0.60;;
13441;SDS011;6793;55.662;13.114;2024-02-26T06:44:10;0.57;;;0.57;;
13441;SDS011;6793;55.662;13.114;2024-02-26T06:46:39;0.50;;;0.50;;
13441;SDS011;6793;55.662;13.114;2024-02-26T06:49:06;0.50;;;0.50;;
13441;SDS011;6793;55.662;13.114;2024-02-26T06:51:33;0.50;;;0.50;;
13441;SDS011;6793;55.662;13.114;2024-02-26T06:54:00;0.50;;;0.50;;
13441;SDS011;6793;55.662;13.114;2024-02-26T06:56:27;0.50;;;0.50;;
13441;SDS011;6793;55.662;13.114;2024-02-26T06:58:54;0.50;;;0.50;;
13441;SDS011;6793;55.662;13.114;2024-02-26T07:01:23;0.50;;;0.50;;
13441;SDS011;6793;55.662;13.114;2024-02-26T07:03:50;0.50;;;0.50;;
13441;SDS011;6793;55.662;13.114;2024-02-26T07:06:17;0.40;;;0.40;;
13441;SDS011;6793;55.662;13.114;2024-02-26T07:08:44;0.50;;;0.50;;
13441;SDS011;6793;55.662;13.114;2024-02-26T07:11:11;0.40;;;0.40;;
13441;SDS011;6793;55.662;13.114;2024-02-26T07:13:38;0.40;;;0.40;;
13441;SDS011;6793;55.662;13.114;2024-02-26T07:16:05;0.50;;;0.50;;
13441;SDS011;6793;55.662;13.114;2024-02-26T07:18:34;0.40;;;0.40;;
13441;SDS011;6793;55.662;13.114;2024-02-26T07:21:01;0.40;;;0.40;;
13441;SDS011;6793;55.662;13.114;2024-02-26T07:23:28;0.50;;;0.50;;
13441;SDS011;6793;55.662;13.114;2024-02-26T07:25:55;0.40;;;0.40;;
13441;SDS011;6793;55.662;13.114;2024-02-26T07:28:23;0.40;;;0.40;;
13441;SDS011;6793;55.662;13.114;2024-02-26T07:30:50;0.50;;;0.50;;
13441;SDS011;6793;55.662;13.114;2024-02-26T07:33:17;0.40;;;0.40;;
13441;SDS011;6793;55.662;13.114;2024-02-26T07:35:46;0.40;;;0.40;;
13441;SDS011;6793;55.662;13.114;2024-02-26T07:38:13;0.40;;;0.40;;
13441;SDS011;6793;55.662;13.114;2024-02-26T07:40:40;0.38;;;0.38;;
13441;SDS011;6793;55.662;13.114;2024-02-26T07:43:07;0.40;;;0.40;;
13441;SDS011;6793;55.662;13.114;2024-02-26T07:45:34;0.40;;;0.40;;
13441;SDS011;6793;55.662;13.114;2024-02-26T07:48:01;0.40;;;0.40;;
13441;SDS011;6793;55.662;13.114;2024-02-26T07:50:28;0.30;;;0.30;;
13441;SDS011;6793;55.662;13.114;2024-02-26T07:52:57;0.30;;;0.30;;
13441;SDS011;6793;55.662;13.114;2024-02-26T07:55:24;0.30;;;0.30;;
13441;SDS011;6793;55.662;13.114;2024-02-26T07:57:51;0.30;;;0.30;;
13441;SDS011;6793;55.662;13.114;2024-02-26T08:00:18;0.30;;;0.30;;
13441;SDS011;6793;55.662;13.114;2024-02-26T08:02:46;0.30;;;0.30;;
13441;SDS011;6793;55.662;13.114;2024-02-26T08:05:13;0.30;;;0.30;;
13441;SDS011;6793;55.662;13.114;2024-02-26T08:07:40;0.40;;;0.40;;
13441;SDS011;6793;55.662;13.114;2024-02-26T08:10:09;0.30;;;0.30;;
13441;SDS011;6793;55.662;13.114;2024-02-26T08:12:36;0.30;;;0.30;;
13441;SDS011;6793;55.662;13.114;2024-02-26T08:15:04;0.30;;;0.30;;
13441;SDS011;6793;55.662;13.114;2024-02-26T08:17:31;0.30;;;0.30;;
13441;SDS011;6793;55.662;13.114;2024-02-26T08:19:58;0.40;;;0.40;;
13441;SDS011;6793;55.662;13.114;2024-02-26T08:22:26;0.40;;;0.40;;
13441;SDS011;6793;55.662;13.114;2024-02-26T08:24:53;0.40;;;0.40;;
13441;SDS011;6793;55.662;13.114;2024-02-26T08:27:21;0.38;;;0.38;;
13441;SDS011;6793;55.662;13.114;2024-02-26T08:29:48;0.40;;;0.40;;
13441;SDS011;6793;55.662;13.114;2024-02-26T08:32:15;0.30;;;0.30;;
13441;SDS011;6793;55.662;13.114;2024-02-26T08:34:42;0.30;;;0.30;;
13441;SDS011;6793;55.662;13.114;2024-02-26T08:37:09;0.30;;;0.30;;
13441;SDS011;6793;55.662;13.114;2024-02-26T08:39:36;0.30;;;0.30;;
13441;SDS011;6793;55.662;13.114;2024-02-26T08:42:04;0.40;;;0.40;;
13441;SDS011;6793;55.662;13.114;2024-02-26T08:44:33;0.30;;;0.30;;
13441;SDS011;6793;55.662;13.114;2024-02-26T08:47:00;0.30;;;0.30;;
13441;SDS011;6793;55.662;13.114;2024-02-26T08:49:27;0.30;;;0.30;;
13441;SDS011;6793;55.662;13.114;2024-02-26T08:51:54;0.30;;;0.30;;
13441;SDS011;6793;55.662;13.114;2024-02-26T08:54:21;0.30;;;0.30;;
13441;SDS011;6793;55.662;13.114;2024-02-26T08:56:49;0.30;;;0.30;;
13441;SDS011;6793;55.662;13.114;2024-02-26T08:59:16;0.30;;;0.30;;
13441;SDS011;6793;55.662;13.114;2024-02-26T09:01:48;0.30;;;0.30;;
13441;SDS011;6793;55.662;13.114;2024-02-26T09:04:15;0.40;;;0.40;;
13441;SDS011;6793;55.662;13.114;2024-02-26T09:06:42;0.30;;;0.30;;
13441;SDS011;6793;55.662;13.114;2024-02-26T09:09:10;0.40;;;0.40;;
13441;SDS011;6793;55.662;13.114;2024-02-26T09:11:37;0.32;;;0.32;;
13441;SDS011;6793;55.662;13.114;2024-02-26T09:14:04;0.30;;;0.30;;
13441;SDS011;6793;55.662;13.114;2024-02-26T09:16:31;0.40;;;0.40;;
13441;SDS011;6793;55.662;13.114;2024-02-26T09:18:59;0.40;;;0.40;;
13441;SDS011;6793;55.662;13.114;2024-02-26T09:21:27;0.40;;;0.40;;
13441;SDS011;6793;55.662;13.114;2024-02-26T09:23:55;0.40;;;0.40;;
13441;SDS011;6793;55.662;13.114;2024-02-26T09:26:22;0.40;;;0.40;;
13441;SDS011;6793;55.662;13.114;2024-02-26T09:28:49;0.30;;;0.30;;
13441;SDS011;6793;55.662;13.114;2024-02-26T09:31:17;0.30;;;0.30;;
13441;SDS011;6793;55.662;13.114;2024-02-26T09:33:44;0.30;;;0.30;;
13441;SDS011;6793;55.662;13.114;2024-02-26T09:36:13;0.40;;;0.40;;
13441;SDS011;6793;55.662;13.114;2024-02-26T09:38:40;0.38;;;0.38;;
13441;SDS011;6793;55.662;13.114;2024-02-26T09:41:07;0.40;;;0.40;;
13441;SDS011;6793;55.662;13.114;2024-02-26T09:43:40;0.30;;;0.30;;
13441;SDS011;6793;55.662;13.114;2024-02-26T09:46:11;0.30;;;0.30;;
13441;SDS011;6793;55.662;13.114;2024-02-26T09:48:38;0.40;;;0.40;;
13441;SDS011;6793;55.662;13.114;2024-02-26T09:51:05;0.40;;;0.40;;
13441;SDS011;6793;55.662;13.114;2024-02-26T09:53:33;0.40;;;0.40;;
13441;SDS011;6793;55.662;13.114;2024-02-26T09:56:04;0.30;;;0.30;;
13441;SDS011;6793;55.662;13.114;2024-02-26T09:58:32;0.30;;;0.30;;
13441;SDS011;6793;55.662;13.114;2024-02-26T10:01:00;0.30;;;0.30;;
13441;SDS011;6793;55.662;13.114;2024-02-26T10:03:30;0.30;;;0.30;;
13441;SDS011;6793;55.662;13.114;2024-02-26T10:05:57;0.40;;;0.40;;
13441;SDS011;6793;55.662;13.114;2024-02-26T10:08:25;0.30;;;0.30;;
13441;SDS011;6793;55.662;13.114;2024-02-26T10:10:54;0.30;;;0.30;;
13441;SDS011;6793;55.662;13.114;2024-02-26T10:13:22;0.30;;;0.30;;
13441;SDS011;6793;55.662;13.114;2024-02-26T10:15:49;0.30;;;0.30;;
13441;SDS011;6793;55.662;13.114;2024-02-26T10:18:16;0.30;;;0.30;;
13441;SDS011;6793;55.662;13.114;2024-02-26T10:20:45;0.35;;;0.35;;
13441;SDS011;6793;55.662;13.114;2024-02-26T10:23:25;0.40;;;0.40;;
13441;SDS011;6793;55.662;13.114;2024-02-26T10:25:52;0.40;;;0.40;;
13441;SDS011;6793;55.662;13.114;2024-02-26T10:28:21;0.30;;;0.30;;
13441;SDS011;6793;55.662;13.114;2024-02-26T10:30:49;0.30;;;0.30;;
13441;SDS011;6793;55.662;13.114;2024-02-26T10:33:17;0.40;;;0.40;;
13441;SDS011;6793;55.662;13.114;2024-02-26T10:35:45;0.40;;;0.40;;
13441;SDS011;6793;55.662;13.114;2024-02-26T10:38:12;0.40;;;0.40;;
13441;SDS011;6793;55.662;13.114;2024-02-26T10:40:42;0.32;;;0.32;;
13441;SDS011;6793;55.662;13.114;2024-02-26T10:43:09;0.35;;;0.35;;
13441;SDS011;6793;55.662;13.114;2024-02-26T10:45:39;0.40;;;0.40;;
13441;SDS011;6793;55.662;13.114;2024-02-26T10:48:13;0.40;;;0.40;;
13441;SDS011;6793;55.662;13.114;2024-02-26T10:50:41;0.40;;;0.40;;
13441;SDS011;6793;55.662;13.114;2024-02-26T10:53:12;0.40;;;0.40;;
13441;SDS011;6793;55.662;13.114;2024-02-26T10:55:40;0.40;;;0.40;;
13441;SDS011;6793;55.662;13.114;2024-02-26T10:58:08;0.40;;;0.40;;
13441;SDS011;6793;55.662;13.114;2024-02-26T11:00:36;0.40;;;0.40;;
13441;SDS011;6793;55.662;13.114;2024-02-26T11:03:06;0.50;;;0.50;;
13441;SDS011;6793;55.662;13.114;2024-02-26T11:05:34;0.50;;;0.50;;
13441;SDS011;6793;55.662;13.114;2024-02-26T11:08:02;0.40;;;0.40;;
13441;SDS011;6793;55.662;13.114;2024-02-26T11:10:31;0.47;;;0.47;;
13441;SDS011;6793;55.662;13.114;2024-02-26T11:12:59;0.50;;;0.50;;
13441;SDS011;6793;55.662;13.114;2024-02-26T11:15:26;0.50;;;0.50;;
13441;SDS011;6793;55.662;13.114;2024-02-26T11:17:57;0.50;;;0.50;;
13441;SDS011;6793;55.662;13.114;2024-02-26T11:20:26;0.50;;;0.50;;
13441;SDS011;6793;55.662;13.114;2024-02-26T11:22:55;0.50;;;0.50;;
13441;SDS011;6793;55.662;13.114;2024-02-26T11:25:22;0.50;;;0.50;;
13441;SDS011;6793;55.662;13.114;2024-02-26T11:27:51;0.52;;;0.52;;
13441;SDS011;6793;55.662;13.114;2024-02-26T11:30:19;0.50;;;0.50;;
13441;SDS011;6793;55.662;13.114;2024-02-26T11:32:46;0.60;;;0.60;;
13441;SDS011;6793;55.662;13.114;2024-02-26T11:35:13;0.60;;;0.60;;
13441;SDS011;6793;55.662;13.114;2024-02-26T11:37:52;0.50;;;0.50;;
13441;SDS011;6793;55.662;13.114;2024-02-26T11:40:19;0.60;;;0.60;;
13441;SDS011;6793;55.662;13.114;2024-02-26T11:42:46;0.60;;;0.60;;
13441;SDS011;6793;55.662;13.114;2024-02-26T11:48:01;0.55;;;0.55;;
13441;SDS011;6793;55.662;13.114;2024-02-26T11:50:34;0.60;;;0.60;;
13441;SDS011;6793;55.662;13.114;2024-02-26T11:53:20;0.50;;;0.50;;
13441;SDS011;6793;55.662;13.114;2024-02-26T11:55:47;0.60;;;0.60;;
13441;SDS011;6793;55.662;13.114;2024-02-26T11:58:15;0.60;;;0.60;;
13441;SDS011;6793;55.662;13.114;2024-02-26T12:00:42;0.50;;;0.50;;
13441;SDS011;6793;55.662;13.114;2024-02-26T12:03:09;0.60;;;0.60;;
13441;SDS011;6793;55.662;13.114;2024-02-26T12:05:37;0.52;;;0.52;;
13441;SDS011;6793;55.662;13.114;2024-02-26T12:08:05;0.50;;;0.50;;
13441;SDS011;6793;55.662;13.114;2024-02-26T12:10:35;0.50;;;0.50;;
13441;SDS011;6793;55.662;13.114;2024-02-26T12:13:05;0.60;;;0.60;;
13441;SDS011;6793;55.662;13.114;2024-02-26T12:15:32;0.50;;;0.50;;
13441;SDS011;6793;55.662;13.114;2024-02-26T12:18:03;0.60;;;0.60;;
13441;SDS011;6793;55.662;13.114;2024-02-26T12:20:30;0.60;;;0.60;;
13441;SDS011;6793;55.662;13.114;2024-02-26T12:22:57;0.50;;;0.50;;
13441;SDS011;6793;55.662;13.114;2024-02-26T12:25:25;0.50;;;0.50;;
13441;SDS011;6793;55.662;13.114;2024-02-26T12:27:54;0.50;;;0.50;;
13441;SDS011;6793;55.662;13.114;2024-02-26T12:30:21;0.50;;;0.50;;
13441;SDS011;6793;55.662;13.114;2024-02-26T12:32:49;0.50;;;0.50;;
13441;SDS011;6793;55.662;13.114;2024-02-26T12:35:16;0.57;;;0.57;;
13441;SDS011;6793;55.662;13.114;2024-02-26T12:37:44;0.50;;;0.50;;
13441;SDS011;6793;55.662;13.114;2024-02-26T12:40:10;0.40;;;0.40;;
13441;SDS011;6793;55.662;13.114;2024-02-26T12:42:38;0.50;;;0.50;;
13441;SDS011;6793;55.662;13.114;2024-02-26T12:45:07;0.50;;;0.50;;
13441;SDS011;6793;55.662;13.114;2024-02-26T12:47:35;0.50;;;0.50;;
13441;SDS011;6793;55.662;13.114;2024-02-26T12:50:03;0.50;;;0.50;;
13441;SDS011;6793;55.662;13.114;2024-02-26T12:52:30;0.45;;;0.45;;
13441;SDS011;6793;55.662;13.114;2024-02-26T12:54:58;0.40;;;0.40;;
13441;SDS011;6793;55.662;13.114;2024-02-26T12:57:25;0.40;;;0.40;;
13441;SDS011;6793;55.662;13.114;2024-02-26T12:59:55;0.40;;;0.40;;
13441;SDS011;6793;55.662;13.114;2024-02-26T13:02:23;0.40;;;0.40;;
13441;SDS011;6793;55.662;13.114;2024-02-26T13:04:51;0.40;;;0.40;;
13441;SDS011;6793;55.662;13.114;2024-02-26T13:07:18;0.40;;;0.40;;
13441;SDS011;6793;55.662;13.114;2024-02-26T13:09:45;0.40;;;0.40;;
13441;SDS011;6793;55.662;13.114;2024-02-26T13:12:13;0.40;;;0.40;;
13441;SDS011;6793;55.662;13.114;2024-02-26T13:14:40;0.40;;;0.40;;
13441;SDS011;6793;55.662;13.114;2024-02-26T13:17:07;0.40;;;0.40;;
13441;SDS011;6793;55.662;13.114;2024-02-26T13:19:36;0.40;;;0.40;;
13441;SDS011;6793;55.662;13.114;2024-02-26T13:22:04;0.40;;;0.40;;
13441;SDS011;6793;55.662;13.114;2024-02-26T13:24:31;0.50;;;0.50;;
13441;SDS011;6793;55.662;13.114;2024-02-26T13:26:58;0.50;;;0.50;;
13441;SDS011;6793;55.662;13.114;2024-02-26T13:29:26;0.50;;;0.50;;
13441;SDS011;6793;55.662;13.114;2024-02-26T13:31:54;0.50;;;0.50;;
13441;SDS011;6793;55.662;13.114;2024-02-26T13:34:25;0.50;;;0.50;;
13441;SDS011;6793;55.662;13.114;2024-02-26T13:36:54;0.50;;;0.50;;
13441;SDS011;6793;55.662;13.114;2024-02-26T13:39:21;0.50;;;0.50;;
13441;SDS011;6793;55.662;13.114;2024-02-26T13:41:49;0.40;;;0.40;;
13441;SDS011;6793;55.662;13.114;2024-02-26T13:44:16;0.50;;;0.50;;
13441;SDS011;6793;55.662;13.114;2024-02-26T13:46:44;0.40;;;0.40;;
13441;SDS011;6793;55.662;13.114;2024-02-26T13:49:11;0.50;;;0.50;;
13441;SDS011;6793;55.662;13.114;2024-02-26T13:51:41;0.60;;;0.60;;
13441;SDS011;6793;55.662;13.114;2024-02-26T13:54:09;0.60;;;0.60;;
13441;SDS011;6793;55.662;13.114;2024-02-26T13:56:37;0.50;;;0.50;;
13441;SDS011;6793;55.662;13.114;2024-02-26T13:59:05;0.60;;;0.60;;
13441;SDS011;6793;55.662;13.114;2024-02-26T14:01:32;0.70;;;0.70;;
13441;SDS011;6793;55.662;13.114;2024-02-26T14:03:59;0.60;;;0.60;;
13441;SDS011;6793;55.662;13.114;2024-02-26T14:06:29;0.52;;;0.52;;
13441;SDS011;6793;55.662;13.114;2024-02-26T14:08:57;0.50;;;0.50;;
13441;SDS011;6793;55.662;13.114;2024-02-26T14:11:25;0.60;;;0.60;;
13441;SDS011;6793;55.662;13.114;2024-02-26T14:13:54;0.60;;;0.60;;
13441;SDS011;6793;55.662;13.114;2024-02-26T14:16:21;0.60;;;0.60;;
13441;SDS011;6793;55.662;13.114;2024-02-26T14:18:48;0.60;;;0.60;;
13441;SDS011;6793;55.662;13.114;2024-02-26T14:21:15;0.70;;;0.70;;
13441;SDS011;6793;55.662;13.114;2024-02-26T14:23:42;0.60;;;0.60;;
13441;SDS011;6793;55.662;13.114;2024-02-26T14:26:09;0.50;;;0.50;;
13441;SDS011;6793;55.662;13.114;2024-02-26T14:28:38;0.70;;;0.70;;
13441;SDS011;6793;55.662;13.114;2024-02-26T14:31:05;0.70;;;0.70;;
13441;SDS011;6793;55.662;13.114;2024-02-26T14:33:36;0.60;;;0.60;;
13441;SDS011;6793;55.662;13.114;2024-02-26T14:36:04;0.70;;;0.70;;
13441;SDS011;6793;55.662;13.114;2024-02-26T14:38:31;0.70;;;0.70;;
13441;SDS011;6793;55.662;13.114;2024-02-26T14:40:58;0.70;;;0.70;;
13441;SDS011;6793;55.662;13.114;2024-02-26T14:43:25;0.70;;;0.70;;
13441;SDS011;6793;55.662;13.114;2024-02-26T14:45:54;0.80;;;0.80;;
13441;SDS011;6793;55.662;13.114;2024-02-26T14:48:21;0.80;;;0.80;;
13441;SDS011;6793;55.662;13.114;2024-02-26T14:50:49;0.73;;;0.73;;
13441;SDS011;6793;55.662;13.114;2024-02-26T14:53:16;0.60;;;0.60;;
13441;SDS011;6793;55.662;13.114;2024-02-26T14:55:44;0.68;;;0.68;;